sensor_id;sensor_type;location;lat;lon;timestamp;P1;durP1;ratioP1;P2;durP2;ratioP2
801;SDS011;383;48.766;9.270;2023-05-07T00:00:18;6.13;;;3.43;;
801;SDS011;383;48.766;9.270;2023-05-07T00:02:46;4.87;;;3.57;;
801;SDS011;383;48.766;9.270;2023-05-07T00:05:13;3.10;;;2.90;;
801;SDS011;383;48.766;9.270;2023-05-07T00:07:40;5.53;;;3.40;;
801;SDS011;383;48.766;9.270;2023-05-07T00:10:07;4.33;;;3.03;;
801;SDS011;383;48.766;9.270;2023-05-07T00:12:34;3.33;;;3.17;;
801;SDS011;383;48.766;9.270;2023-05-07T00:15:01;4.10;;;2.90;;
801;SDS011;383;48.766;9.270;2023-05-07T00:17:28;6.13;;;3.50;;
801;SDS011;383;48.766;9.270;2023-05-07T00:19:56;7.40;;;3.27;;
801;SDS011;383;48.766;9.270;2023-05-07T00:22:23;4.90;;;3.47;;
801;SDS011;383;48.766;9.270;2023-05-07T00:24:50;6.13;;;3.90;;
801;SDS011;383;48.766;9.270;2023-05-07T00:27:17;5.60;;;3.60;;
801;SDS011;383;48.766;9.270;2023-05-07T00:29:43;4.73;;;3.43;;
801;SDS011;383;48.766;9.270;2023-05-07T00:32:10;6.23;;;3.40;;
801;SDS011;383;48.766;9.270;2023-05-07T00:34:37;4.20;;;3.43;;
801;SDS011;383;48.766;9.270;2023-05-07T00:37:05;5.07;;;4.43;;
801;SDS011;383;48.766;9.270;2023-05-07T00:39:33;8.07;;;4.27;;
801;SDS011;383;48.766;9.270;2023-05-07T00:42:00;7.70;;;4.00;;
801;SDS011;383;48.766;9.270;2023-05-07T00:44:27;5.47;;;3.20;;
801;SDS011;383;48.766;9.270;2023-05-07T00:46:54;7.40;;;3.97;;
801;SDS011;383;48.766;9.270;2023-05-07T00:49:22;7.03;;;4.37;;
801;SDS011;383;48.766;9.270;2023-05-07T00:51:54;10.53;;;5.77;;
801;SDS011;383;48.766;9.270;2023-05-07T00:54:22;9.03;;;5.80;;
801;SDS011;383;48.766;9.270;2023-05-07T00:56:49;5.60;;;4.00;;
801;SDS011;383;48.766;9.270;2023-05-07T00:59:16;7.37;;;4.50;;
801;SDS011;383;48.766;9.270;2023-05-07T01:01:43;11.40;;;4.03;;
801;SDS011;383;48.766;9.270;2023-05-07T01:04:10;6.60;;;4.00;;
801;SDS011;383;48.766;9.270;2023-05-07T01:06:36;10.43;;;6.03;;
801;SDS011;383;48.766;9.270;2023-05-07T01:09:04;5.47;;;4.23;;
801;SDS011;383;48.766;9.270;2023-05-07T01:11:32;5.13;;;3.47;;
801;SDS011;383;48.766;9.270;2023-05-07T01:13:59;8.80;;;3.60;;
801;SDS011;383;48.766;9.270;2023-05-07T01:16:26;5.63;;;4.10;;
801;SDS011;383;48.766;9.270;2023-05-07T01:18:53;9.37;;;4.53;;
801;SDS011;383;48.766;9.270;2023-05-07T01:21:20;6.23;;;4.70;;
801;SDS011;383;48.766;9.270;2023-05-07T01:23:53;10.73;;;4.90;;
801;SDS011;383;48.766;9.270;2023-05-07T01:26:20;6.03;;;4.30;;
801;SDS011;383;48.766;9.270;2023-05-07T01:28:48;6.37;;;4.10;;
801;SDS011;383;48.766;9.270;2023-05-07T01:31:15;6.10;;;4.20;;
801;SDS011;383;48.766;9.270;2023-05-07T01:33:43;5.57;;;4.40;;
801;SDS011;383;48.766;9.270;2023-05-07T01:36:11;7.07;;;4.63;;
801;SDS011;383;48.766;9.270;2023-05-07T01:38:39;9.30;;;4.53;;
801;SDS011;383;48.766;9.270;2023-05-07T01:41:09;7.17;;;4.30;;
801;SDS011;383;48.766;9.270;2023-05-07T01:43:37;14.27;;;5.70;;
801;SDS011;383;48.766;9.270;2023-05-07T01:46:03;8.97;;;4.10;;
801;SDS011;383;48.766;9.270;2023-05-07T01:48:30;6.37;;;3.60;;
801;SDS011;383;48.766;9.270;2023-05-07T01:50:58;5.67;;;4.00;;
801;SDS011;383;48.766;9.270;2023-05-07T01:53:26;8.10;;;3.40;;
801;SDS011;383;48.766;9.270;2023-05-07T01:55:53;6.27;;;3.90;;
801;SDS011;383;48.766;9.270;2023-05-07T01:58:21;6.07;;;4.10;;
801;SDS011;383;48.766;9.270;2023-05-07T02:00:48;4.97;;;3.90;;
801;SDS011;383;48.766;9.270;2023-05-07T02:03:15;5.97;;;3.93;;
801;SDS011;383;48.766;9.270;2023-05-07T02:05:41;12.40;;;4.30;;
801;SDS011;383;48.766;9.270;2023-05-07T02:08:08;6.87;;;4.50;;
801;SDS011;383;48.766;9.270;2023-05-07T02:10:35;7.40;;;4.70;;
801;SDS011;383;48.766;9.270;2023-05-07T02:13:02;6.90;;;4.60;;
801;SDS011;383;48.766;9.270;2023-05-07T02:15:30;8.27;;;4.97;;
801;SDS011;383;48.766;9.270;2023-05-07T02:18:00;9.67;;;5.43;;
801;SDS011;383;48.766;9.270;2023-05-07T02:20:28;6.43;;;4.23;;
801;SDS011;383;48.766;9.270;2023-05-07T02:22:55;5.53;;;4.50;;
801;SDS011;383;48.766;9.270;2023-05-07T02:25:21;6.10;;;3.87;;
801;SDS011;383;48.766;9.270;2023-05-07T02:27:48;7.60;;;4.60;;
801;SDS011;383;48.766;9.270;2023-05-07T02:30:15;6.13;;;4.20;;
801;SDS011;383;48.766;9.270;2023-05-07T02:32:43;7.67;;;4.23;;
801;SDS011;383;48.766;9.270;2023-05-07T02:35:10;8.57;;;4.40;;
801;SDS011;383;48.766;9.270;2023-05-07T02:37:37;7.90;;;4.65;;
801;SDS011;383;48.766;9.270;2023-05-07T02:40:04;7.03;;;4.20;;
801;SDS011;383;48.766;9.270;2023-05-07T02:42:31;7.30;;;4.60;;
801;SDS011;383;48.766;9.270;2023-05-07T02:44:58;13.48;;;5.22;;
801;SDS011;383;48.766;9.270;2023-05-07T02:47:24;7.85;;;5.03;;
801;SDS011;383;48.766;9.270;2023-05-07T02:49:54;5.80;;;4.47;;
801;SDS011;383;48.766;9.270;2023-05-07T02:52:21;7.32;;;4.30;;
801;SDS011;383;48.766;9.270;2023-05-07T02:54:48;6.87;;;4.40;;
801;SDS011;383;48.766;9.270;2023-05-07T02:57:15;9.85;;;4.93;;
801;SDS011;383;48.766;9.270;2023-05-07T02:59:42;6.78;;;4.85;;
801;SDS011;383;48.766;9.270;2023-05-07T03:02:09;7.97;;;4.85;;
801;SDS011;383;48.766;9.270;2023-05-07T03:04:35;7.13;;;4.55;;
801;SDS011;383;48.766;9.270;2023-05-07T03:07:03;8.75;;;4.63;;
801;SDS011;383;48.766;9.270;2023-05-07T03:09:30;6.47;;;4.40;;
801;SDS011;383;48.766;9.270;2023-05-07T03:11:57;7.72;;;4.45;;
801;SDS011;383;48.766;9.270;2023-05-07T03:14:23;7.43;;;5.10;;
801;SDS011;383;48.766;9.270;2023-05-07T03:16:50;6.40;;;4.45;;
801;SDS011;383;48.766;9.270;2023-05-07T03:19:17;7.05;;;4.50;;
801;SDS011;383;48.766;9.270;2023-05-07T03:21:43;8.23;;;4.65;;
801;SDS011;383;48.766;9.270;2023-05-07T03:24:11;5.63;;;4.25;;
801;SDS011;383;48.766;9.270;2023-05-07T03:26:38;9.52;;;4.10;;
801;SDS011;383;48.766;9.270;2023-05-07T03:29:05;9.63;;;4.75;;
801;SDS011;383;48.766;9.270;2023-05-07T03:31:31;7.18;;;5.18;;
801;SDS011;383;48.766;9.270;2023-05-07T03:33:58;10.32;;;5.00;;
801;SDS011;383;48.766;9.270;2023-05-07T03:36:25;10.75;;;6.13;;
801;SDS011;383;48.766;9.270;2023-05-07T03:38:52;7.85;;;5.28;;
801;SDS011;383;48.766;9.270;2023-05-07T03:41:20;6.40;;;4.78;;
801;SDS011;383;48.766;9.270;2023-05-07T03:43:47;7.60;;;4.75;;
801;SDS011;383;48.766;9.270;2023-05-07T03:46:14;9.00;;;4.22;;
801;SDS011;383;48.766;9.270;2023-05-07T03:48:40;9.32;;;5.00;;
801;SDS011;383;48.766;9.270;2023-05-07T03:51:07;7.20;;;4.85;;
801;SDS011;383;48.766;9.270;2023-05-07T03:53:34;10.55;;;6.03;;
801;SDS011;383;48.766;9.270;2023-05-07T03:56:01;11.38;;;4.93;;
801;SDS011;383;48.766;9.270;2023-05-07T03:58:29;7.80;;;4.35;;
801;SDS011;383;48.766;9.270;2023-05-07T04:00:55;5.85;;;4.38;;
801;SDS011;383;48.766;9.270;2023-05-07T04:03:22;17.88;;;6.75;;
801;SDS011;383;48.766;9.270;2023-05-07T04:05:49;5.95;;;4.43;;
801;SDS011;383;48.766;9.270;2023-05-07T04:08:15;8.48;;;5.43;;
801;SDS011;383;48.766;9.270;2023-05-07T04:10:42;6.22;;;4.80;;
801;SDS011;383;48.766;9.270;2023-05-07T04:13:09;7.35;;;4.43;;
801;SDS011;383;48.766;9.270;2023-05-07T04:15:37;13.30;;;4.90;;
801;SDS011;383;48.766;9.270;2023-05-07T04:18:03;7.22;;;5.25;;
801;SDS011;383;48.766;9.270;2023-05-07T04:20:30;7.68;;;5.00;;
801;SDS011;383;48.766;9.270;2023-05-07T04:23:01;8.50;;;4.72;;
801;SDS011;383;48.766;9.270;2023-05-07T04:25:27;8.90;;;5.32;;
801;SDS011;383;48.766;9.270;2023-05-07T04:27:54;10.68;;;4.88;;
801;SDS011;383;48.766;9.270;2023-05-07T04:30:21;6.25;;;4.72;;
801;SDS011;383;48.766;9.270;2023-05-07T04:32:49;5.35;;;4.18;;
801;SDS011;383;48.766;9.270;2023-05-07T04:35:16;7.97;;;4.43;;
801;SDS011;383;48.766;9.270;2023-05-07T04:37:43;8.05;;;3.80;;
801;SDS011;383;48.766;9.270;2023-05-07T04:40:10;8.13;;;4.78;;
801;SDS011;383;48.766;9.270;2023-05-07T04:42:36;5.53;;;4.30;;
801;SDS011;383;48.766;9.270;2023-05-07T04:45:03;6.57;;;4.43;;
801;SDS011;383;48.766;9.270;2023-05-07T04:47:31;7.47;;;5.03;;
801;SDS011;383;48.766;9.270;2023-05-07T04:49:59;7.57;;;4.53;;
801;SDS011;383;48.766;9.270;2023-05-07T04:52:26;5.78;;;3.85;;
801;SDS011;383;48.766;9.270;2023-05-07T04:54:53;8.70;;;4.10;;
801;SDS011;383;48.766;9.270;2023-05-07T04:57:19;9.57;;;4.20;;
801;SDS011;383;48.766;9.270;2023-05-07T04:59:46;5.32;;;4.07;;
801;SDS011;383;48.766;9.270;2023-05-07T05:02:13;6.18;;;3.78;;
801;SDS011;383;48.766;9.270;2023-05-07T05:04:39;7.35;;;4.85;;
801;SDS011;383;48.766;9.270;2023-05-07T05:07:08;8.80;;;4.80;;
801;SDS011;383;48.766;9.270;2023-05-07T05:09:34;4.93;;;4.00;;
801;SDS011;383;48.766;9.270;2023-05-07T05:12:01;6.30;;;4.70;;
801;SDS011;383;48.766;9.270;2023-05-07T05:14:29;6.40;;;3.90;;
801;SDS011;383;48.766;9.270;2023-05-07T05:16:55;7.80;;;5.05;;
801;SDS011;383;48.766;9.270;2023-05-07T05:19:22;9.27;;;4.35;;
801;SDS011;383;48.766;9.270;2023-05-07T05:21:49;11.55;;;4.72;;
801;SDS011;383;48.766;9.270;2023-05-07T05:24:17;6.53;;;4.40;;
801;SDS011;383;48.766;9.270;2023-05-07T05:26:44;5.70;;;4.07;;
801;SDS011;383;48.766;9.270;2023-05-07T05:29:10;7.68;;;4.47;;
801;SDS011;383;48.766;9.270;2023-05-07T05:31:37;7.03;;;4.45;;
801;SDS011;383;48.766;9.270;2023-05-07T05:34:03;9.73;;;4.93;;
801;SDS011;383;48.766;9.270;2023-05-07T05:36:30;6.80;;;5.00;;
801;SDS011;383;48.766;9.270;2023-05-07T05:38:57;10.50;;;5.60;;
801;SDS011;383;48.766;9.270;2023-05-07T05:41:25;10.50;;;7.20;;
801;SDS011;383;48.766;9.270;2023-05-07T05:43:51;7.00;;;5.60;;
801;SDS011;383;48.766;9.270;2023-05-07T05:46:18;8.80;;;5.87;;
801;SDS011;383;48.766;9.270;2023-05-07T05:48:45;10.20;;;6.00;;
801;SDS011;383;48.766;9.270;2023-05-07T05:51:11;10.97;;;7.60;;
801;SDS011;383;48.766;9.270;2023-05-07T05:53:38;11.90;;;7.40;;
801;SDS011;383;48.766;9.270;2023-05-07T05:56:05;10.13;;;6.43;;
801;SDS011;383;48.766;9.270;2023-05-07T05:58:34;11.10;;;7.17;;
801;SDS011;383;48.766;9.270;2023-05-07T06:01:00;17.00;;;6.40;;
801;SDS011;383;48.766;9.270;2023-05-07T06:03:28;13.17;;;7.27;;
801;SDS011;383;48.766;9.270;2023-05-07T06:05:55;14.57;;;7.97;;
801;SDS011;383;48.766;9.270;2023-05-07T06:08:21;12.30;;;7.30;;
801;SDS011;383;48.766;9.270;2023-05-07T06:10:48;14.10;;;7.60;;
801;SDS011;383;48.766;9.270;2023-05-07T06:13:15;7.80;;;6.10;;
801;SDS011;383;48.766;9.270;2023-05-07T06:15:43;12.13;;;7.93;;
801;SDS011;383;48.766;9.270;2023-05-07T06:18:09;13.17;;;7.10;;
801;SDS011;383;48.766;9.270;2023-05-07T06:20:36;10.20;;;6.87;;
801;SDS011;383;48.766;9.270;2023-05-07T06:23:03;8.67;;;6.63;;
801;SDS011;383;48.766;9.270;2023-05-07T06:25:30;14.33;;;7.33;;
801;SDS011;383;48.766;9.270;2023-05-07T06:27:56;10.00;;;6.70;;
801;SDS011;383;48.766;9.270;2023-05-07T06:30:23;17.30;;;6.90;;
801;SDS011;383;48.766;9.270;2023-05-07T06:32:51;12.23;;;7.50;;
801;SDS011;383;48.766;9.270;2023-05-07T06:35:18;13.70;;;7.23;;
801;SDS011;383;48.766;9.270;2023-05-07T06:37:45;15.53;;;7.73;;
801;SDS011;383;48.766;9.270;2023-05-07T06:40:11;15.53;;;7.30;;
801;SDS011;383;48.766;9.270;2023-05-07T06:42:38;11.00;;;7.33;;
801;SDS011;383;48.766;9.270;2023-05-07T06:45:05;8.60;;;6.80;;
801;SDS011;383;48.766;9.270;2023-05-07T06:47:33;10.60;;;7.40;;
801;SDS011;383;48.766;9.270;2023-05-07T06:50:01;13.73;;;7.37;;
801;SDS011;383;48.766;9.270;2023-05-07T06:52:28;9.80;;;7.33;;
801;SDS011;383;48.766;9.270;2023-05-07T06:54:55;9.40;;;7.10;;
801;SDS011;383;48.766;9.270;2023-05-07T06:57:21;10.33;;;6.87;;
801;SDS011;383;48.766;9.270;2023-05-07T06:59:48;11.93;;;7.17;;
801;SDS011;383;48.766;9.270;2023-05-07T07:02:15;11.87;;;6.40;;
801;SDS011;383;48.766;9.270;2023-05-07T07:04:41;9.97;;;6.57;;
801;SDS011;383;48.766;9.270;2023-05-07T07:07:11;9.83;;;6.17;;
801;SDS011;383;48.766;9.270;2023-05-07T07:09:37;11.63;;;6.40;;
801;SDS011;383;48.766;9.270;2023-05-07T07:12:04;8.83;;;6.47;;
801;SDS011;383;48.766;9.270;2023-05-07T07:14:31;12.87;;;6.87;;
801;SDS011;383;48.766;9.270;2023-05-07T07:16:58;10.53;;;5.50;;
801;SDS011;383;48.766;9.270;2023-05-07T07:19:25;10.67;;;6.53;;
801;SDS011;383;48.766;9.270;2023-05-07T07:21:52;9.70;;;4.90;;
801;SDS011;383;48.766;9.270;2023-05-07T07:24:20;10.00;;;4.70;;
801;SDS011;383;48.766;9.270;2023-05-07T07:26:46;4.97;;;3.93;;
801;SDS011;383;48.766;9.270;2023-05-07T07:29:13;9.83;;;4.03;;
801;SDS011;383;48.766;9.270;2023-05-07T07:31:40;6.80;;;3.60;;
801;SDS011;383;48.766;9.270;2023-05-07T07:34:06;6.80;;;4.90;;
801;SDS011;383;48.766;9.270;2023-05-07T07:36:33;7.50;;;4.90;;
801;SDS011;383;48.766;9.270;2023-05-07T07:39:00;5.80;;;4.23;;
801;SDS011;383;48.766;9.270;2023-05-07T07:41:28;5.87;;;4.17;;
801;SDS011;383;48.766;9.270;2023-05-07T07:43:54;7.87;;;4.07;;
801;SDS011;383;48.766;9.270;2023-05-07T07:46:21;10.43;;;3.40;;
801;SDS011;383;48.766;9.270;2023-05-07T07:48:48;8.43;;;3.60;;
801;SDS011;383;48.766;9.270;2023-05-07T07:51:14;4.90;;;3.60;;
801;SDS011;383;48.766;9.270;2023-05-07T07:53:41;8.27;;;4.40;;
801;SDS011;383;48.766;9.270;2023-05-07T07:56:08;6.90;;;3.90;;
801;SDS011;383;48.766;9.270;2023-05-07T07:58:36;6.70;;;3.40;;
801;SDS011;383;48.766;9.270;2023-05-07T08:01:04;6.87;;;3.63;;
801;SDS011;383;48.766;9.270;2023-05-07T08:03:30;5.90;;;3.43;;
801;SDS011;383;48.766;9.270;2023-05-07T08:05:58;4.43;;;3.53;;
801;SDS011;383;48.766;9.270;2023-05-07T08:08:25;6.60;;;3.60;;
801;SDS011;383;48.766;9.270;2023-05-07T08:10:52;10.90;;;4.20;;
801;SDS011;383;48.766;9.270;2023-05-07T08:13:18;10.60;;;6.50;;
801;SDS011;383;48.766;9.270;2023-05-07T08:15:46;8.60;;;5.43;;
801;SDS011;383;48.766;9.270;2023-05-07T08:18:13;7.90;;;4.63;;
801;SDS011;383;48.766;9.270;2023-05-07T08:20:40;6.53;;;4.03;;
801;SDS011;383;48.766;9.270;2023-05-07T08:23:07;6.93;;;5.37;;
801;SDS011;383;48.766;9.270;2023-05-07T08:25:34;11.67;;;5.00;;
801;SDS011;383;48.766;9.270;2023-05-07T08:28:01;11.10;;;6.10;;
801;SDS011;383;48.766;9.270;2023-05-07T08:30:28;6.13;;;3.90;;
801;SDS011;383;48.766;9.270;2023-05-07T08:32:56;4.70;;;4.00;;
801;SDS011;383;48.766;9.270;2023-05-07T08:35:22;6.47;;;4.60;;
801;SDS011;383;48.766;9.270;2023-05-07T08:37:50;7.50;;;3.87;;
801;SDS011;383;48.766;9.270;2023-05-07T08:40:17;5.20;;;4.27;;
801;SDS011;383;48.766;9.270;2023-05-07T08:42:44;5.13;;;3.67;;
801;SDS011;383;48.766;9.270;2023-05-07T08:45:15;5.87;;;4.00;;
801;SDS011;383;48.766;9.270;2023-05-07T08:47:44;4.43;;;3.50;;
801;SDS011;383;48.766;9.270;2023-05-07T08:50:15;6.20;;;3.60;;
801;SDS011;383;48.766;9.270;2023-05-07T08:52:41;6.33;;;4.10;;
801;SDS011;383;48.766;9.270;2023-05-07T08:55:08;5.13;;;3.93;;
801;SDS011;383;48.766;9.270;2023-05-07T08:57:35;7.97;;;4.17;;
801;SDS011;383;48.766;9.270;2023-05-07T09:00:02;6.67;;;4.60;;
801;SDS011;383;48.766;9.270;2023-05-07T09:02:32;7.90;;;3.70;;
801;SDS011;383;48.766;9.270;2023-05-07T09:04:59;7.90;;;4.00;;
801;SDS011;383;48.766;9.270;2023-05-07T09:07:27;4.47;;;3.20;;
801;SDS011;383;48.766;9.270;2023-05-07T09:09:53;9.00;;;3.97;;
801;SDS011;383;48.766;9.270;2023-05-07T09:12:22;8.20;;;3.80;;
801;SDS011;383;48.766;9.270;2023-05-07T09:14:48;8.23;;;3.90;;
801;SDS011;383;48.766;9.270;2023-05-07T09:17:15;5.77;;;3.93;;
801;SDS011;383;48.766;9.270;2023-05-07T09:19:43;4.90;;;3.30;;
801;SDS011;383;48.766;9.270;2023-05-07T09:22:11;5.00;;;4.10;;
801;SDS011;383;48.766;9.270;2023-05-07T09:24:39;6.33;;;3.43;;
801;SDS011;383;48.766;9.270;2023-05-07T09:27:06;6.73;;;3.20;;
801;SDS011;383;48.766;9.270;2023-05-07T09:29:34;8.57;;;3.63;;
801;SDS011;383;48.766;9.270;2023-05-07T09:32:01;4.10;;;3.40;;
801;SDS011;383;48.766;9.270;2023-05-07T09:34:28;3.80;;;3.13;;
801;SDS011;383;48.766;9.270;2023-05-07T09:36:55;5.07;;;3.80;;
801;SDS011;383;48.766;9.270;2023-05-07T09:39:22;5.20;;;3.43;;
801;SDS011;383;48.766;9.270;2023-05-07T09:41:50;3.47;;;3.07;;
801;SDS011;383;48.766;9.270;2023-05-07T09:44:19;4.70;;;3.30;;
801;SDS011;383;48.766;9.270;2023-05-07T09:46:46;3.80;;;3.10;;
801;SDS011;383;48.766;9.270;2023-05-07T09:49:20;4.00;;;2.93;;
801;SDS011;383;48.766;9.270;2023-05-07T09:51:48;5.20;;;3.37;;
801;SDS011;383;48.766;9.270;2023-05-07T09:54:16;4.10;;;2.87;;
801;SDS011;383;48.766;9.270;2023-05-07T09:56:43;5.83;;;3.93;;
801;SDS011;383;48.766;9.270;2023-05-07T09:59:13;3.73;;;2.83;;
801;SDS011;383;48.766;9.270;2023-05-07T10:01:42;5.17;;;3.23;;
801;SDS011;383;48.766;9.270;2023-05-07T10:04:09;7.17;;;4.30;;
801;SDS011;383;48.766;9.270;2023-05-07T10:06:37;13.70;;;4.67;;
801;SDS011;383;48.766;9.270;2023-05-07T10:09:04;6.20;;;3.80;;
801;SDS011;383;48.766;9.270;2023-05-07T10:11:31;3.50;;;2.97;;
801;SDS011;383;48.766;9.270;2023-05-07T10:13:59;5.20;;;2.90;;
801;SDS011;383;48.766;9.270;2023-05-07T10:16:28;6.23;;;3.00;;
801;SDS011;383;48.766;9.270;2023-05-07T10:19:01;8.00;;;3.47;;
801;SDS011;383;48.766;9.270;2023-05-07T10:21:28;9.00;;;5.10;;
801;SDS011;383;48.766;9.270;2023-05-07T10:23:58;6.40;;;3.20;;
801;SDS011;383;48.766;9.270;2023-05-07T10:26:27;6.37;;;3.37;;
801;SDS011;383;48.766;9.270;2023-05-07T10:28:56;3.60;;;2.93;;
801;SDS011;383;48.766;9.270;2023-05-07T10:31:35;4.87;;;3.07;;
801;SDS011;383;48.766;9.270;2023-05-07T10:34:14;8.33;;;3.17;;
801;SDS011;383;48.766;9.270;2023-05-07T10:36:46;3.03;;;2.93;;
801;SDS011;383;48.766;9.270;2023-05-07T10:39:13;3.33;;;2.60;;
801;SDS011;383;48.766;9.270;2023-05-07T10:41:40;4.70;;;2.50;;
801;SDS011;383;48.766;9.270;2023-05-07T10:44:07;5.77;;;3.17;;
801;SDS011;383;48.766;9.270;2023-05-07T10:46:35;4.83;;;2.50;;
801;SDS011;383;48.766;9.270;2023-05-07T10:49:08;6.93;;;3.43;;
801;SDS011;383;48.766;9.270;2023-05-07T10:51:37;8.60;;;2.70;;
801;SDS011;383;48.766;9.270;2023-05-07T10:54:20;4.77;;;2.90;;
801;SDS011;383;48.766;9.270;2023-05-07T10:56:48;3.73;;;2.67;;
801;SDS011;383;48.766;9.270;2023-05-07T11:02:14;3.00;;;2.43;;
801;SDS011;383;48.766;9.270;2023-05-07T11:04:40;7.10;;;3.63;;
801;SDS011;383;48.766;9.270;2023-05-07T11:07:26;3.07;;;2.60;;
801;SDS011;383;48.766;9.270;2023-05-07T11:09:57;4.03;;;2.93;;
801;SDS011;383;48.766;9.270;2023-05-07T11:18:08;5.17;;;3.30;;
801;SDS011;383;48.766;9.270;2023-05-07T11:20:45;3.53;;;2.77;;
801;SDS011;383;48.766;9.270;2023-05-07T11:26:41;3.73;;;2.67;;
801;SDS011;383;48.766;9.270;2023-05-07T11:29:13;2.67;;;2.43;;
801;SDS011;383;48.766;9.270;2023-05-07T11:31:41;8.57;;;2.50;;
801;SDS011;383;48.766;9.270;2023-05-07T11:34:09;5.70;;;3.00;;
801;SDS011;383;48.766;9.270;2023-05-07T11:36:41;5.50;;;3.30;;
801;SDS011;383;48.766;9.270;2023-05-07T11:42:03;3.83;;;2.70;;
801;SDS011;383;48.766;9.270;2023-05-07T11:44:40;5.13;;;3.10;;
801;SDS011;383;48.766;9.270;2023-05-07T11:47:08;2.57;;;2.37;;
801;SDS011;383;48.766;9.270;2023-05-07T11:49:37;3.93;;;2.40;;
801;SDS011;383;48.766;9.270;2023-05-07T11:52:05;5.00;;;3.47;;
801;SDS011;383;48.766;9.270;2023-05-07T11:54:34;3.27;;;2.60;;
801;SDS011;383;48.766;9.270;2023-05-07T11:57:02;2.90;;;2.63;;
801;SDS011;383;48.766;9.270;2023-05-07T11:59:29;2.83;;;2.63;;
801;SDS011;383;48.766;9.270;2023-05-07T12:01:56;5.43;;;2.70;;
801;SDS011;383;48.766;9.270;2023-05-07T12:04:24;3.20;;;2.73;;
801;SDS011;383;48.766;9.270;2023-05-07T12:06:54;2.80;;;2.53;;
801;SDS011;383;48.766;9.270;2023-05-07T12:09:21;4.10;;;2.77;;
801;SDS011;383;48.766;9.270;2023-05-07T12:11:48;5.30;;;2.60;;
801;SDS011;383;48.766;9.270;2023-05-07T12:14:17;8.90;;;2.63;;
801;SDS011;383;48.766;9.270;2023-05-07T12:16:44;4.93;;;2.80;;
801;SDS011;383;48.766;9.270;2023-05-07T12:19:12;5.37;;;3.00;;
801;SDS011;383;48.766;9.270;2023-05-07T12:21:39;5.17;;;2.77;;
801;SDS011;383;48.766;9.270;2023-05-07T12:24:08;10.77;;;2.80;;
801;SDS011;383;48.766;9.270;2023-05-07T12:26:37;7.70;;;3.00;;
801;SDS011;383;48.766;9.270;2023-05-07T12:29:05;11.30;;;4.27;;
801;SDS011;383;48.766;9.270;2023-05-07T12:31:32;29.47;;;6.97;;
801;SDS011;383;48.766;9.270;2023-05-07T12:33:59;30.30;;;6.63;;
801;SDS011;383;48.766;9.270;2023-05-07T12:36:26;13.83;;;5.00;;
801;SDS011;383;48.766;9.270;2023-05-07T12:39:03;16.03;;;5.07;;
801;SDS011;383;48.766;9.270;2023-05-07T12:41:34;13.90;;;5.00;;
801;SDS011;383;48.766;9.270;2023-05-07T12:44:04;11.50;;;6.30;;
801;SDS011;383;48.766;9.270;2023-05-07T12:46:32;13.20;;;5.93;;
801;SDS011;383;48.766;9.270;2023-05-07T12:49:04;8.50;;;4.93;;
801;SDS011;383;48.766;9.270;2023-05-07T12:51:31;8.30;;;4.93;;
801;SDS011;383;48.766;9.270;2023-05-07T12:53:57;11.27;;;5.90;;
801;SDS011;383;48.766;9.270;2023-05-07T12:56:24;5.47;;;3.63;;
801;SDS011;383;48.766;9.270;2023-05-07T12:58:56;5.47;;;3.30;;
801;SDS011;383;48.766;9.270;2023-05-07T13:01:28;8.80;;;4.10;;
801;SDS011;383;48.766;9.270;2023-05-07T13:03:55;15.90;;;7.00;;
801;SDS011;383;48.766;9.270;2023-05-07T13:06:21;8.33;;;4.50;;
801;SDS011;383;48.766;9.270;2023-05-07T13:08:48;14.50;;;6.17;;
801;SDS011;383;48.766;9.270;2023-05-07T13:11:15;13.13;;;6.70;;
801;SDS011;383;48.766;9.270;2023-05-07T13:13:41;32.57;;;8.53;;
801;SDS011;383;48.766;9.270;2023-05-07T13:16:10;32.20;;;5.90;;
801;SDS011;383;48.766;9.270;2023-05-07T13:18:38;15.50;;;5.00;;
801;SDS011;383;48.766;9.270;2023-05-07T13:21:06;15.67;;;3.30;;
801;SDS011;383;48.766;9.270;2023-05-07T13:23:33;12.20;;;2.80;;
801;SDS011;383;48.766;9.270;2023-05-07T13:26:00;13.60;;;2.80;;
801;SDS011;383;48.766;9.270;2023-05-07T13:28:26;23.63;;;4.40;;
801;SDS011;383;48.766;9.270;2023-05-07T13:30:53;5.60;;;2.60;;
801;SDS011;383;48.766;9.270;2023-05-07T13:33:23;8.07;;;2.60;;
801;SDS011;383;48.766;9.270;2023-05-07T13:35:50;8.80;;;2.17;;
801;SDS011;383;48.766;9.270;2023-05-07T13:38:17;2.43;;;2.10;;
801;SDS011;383;48.766;9.270;2023-05-07T13:40:44;7.73;;;2.40;;
801;SDS011;383;48.766;9.270;2023-05-07T13:43:11;5.77;;;2.47;;
801;SDS011;383;48.766;9.270;2023-05-07T13:45:37;5.60;;;2.03;;
801;SDS011;383;48.766;9.270;2023-05-07T13:48:04;4.60;;;2.37;;
801;SDS011;383;48.766;9.270;2023-05-07T13:50:33;3.83;;;1.50;;
801;SDS011;383;48.766;9.270;2023-05-07T13:53:00;4.07;;;2.00;;
801;SDS011;383;48.766;9.270;2023-05-07T13:55:28;29.03;;;14.47;;
801;SDS011;383;48.766;9.270;2023-05-07T13:57:55;8.07;;;2.23;;
801;SDS011;383;48.766;9.270;2023-05-07T14:00:23;8.87;;;3.00;;
801;SDS011;383;48.766;9.270;2023-05-07T14:02:50;6.23;;;2.40;;
801;SDS011;383;48.766;9.270;2023-05-07T14:05:16;5.60;;;2.50;;
801;SDS011;383;48.766;9.270;2023-05-07T14:07:44;7.70;;;2.60;;
801;SDS011;383;48.766;9.270;2023-05-07T14:10:12;6.87;;;2.90;;
801;SDS011;383;48.766;9.270;2023-05-07T14:12:39;6.93;;;3.53;;
801;SDS011;383;48.766;9.270;2023-05-07T14:15:07;5.37;;;3.20;;
801;SDS011;383;48.766;9.270;2023-05-07T14:17:34;7.57;;;3.33;;
801;SDS011;383;48.766;9.270;2023-05-07T14:20:01;10.40;;;3.43;;
801;SDS011;383;48.766;9.270;2023-05-07T14:22:28;8.10;;;3.47;;
801;SDS011;383;48.766;9.270;2023-05-07T14:24:56;7.20;;;3.90;;
801;SDS011;383;48.766;9.270;2023-05-07T14:27:23;7.63;;;3.57;;
801;SDS011;383;48.766;9.270;2023-05-07T14:29:49;6.77;;;2.87;;
801;SDS011;383;48.766;9.270;2023-05-07T14:32:16;5.90;;;3.27;;
801;SDS011;383;48.766;9.270;2023-05-07T14:34:44;5.30;;;3.20;;
801;SDS011;383;48.766;9.270;2023-05-07T14:37:10;10.53;;;3.63;;
801;SDS011;383;48.766;9.270;2023-05-07T14:39:37;9.23;;;4.00;;
801;SDS011;383;48.766;9.270;2023-05-07T14:42:06;6.87;;;3.27;;
801;SDS011;383;48.766;9.270;2023-05-07T14:44:33;4.70;;;3.10;;
801;SDS011;383;48.766;9.270;2023-05-07T14:47:00;7.83;;;3.50;;
801;SDS011;383;48.766;9.270;2023-05-07T14:49:27;4.03;;;2.80;;
801;SDS011;383;48.766;9.270;2023-05-07T14:51:54;6.83;;;3.90;;
801;SDS011;383;48.766;9.270;2023-05-07T14:54:23;7.53;;;4.07;;
801;SDS011;383;48.766;9.270;2023-05-07T14:56:50;9.30;;;3.00;;
801;SDS011;383;48.766;9.270;2023-05-07T14:59:18;8.10;;;3.70;;
801;SDS011;383;48.766;9.270;2023-05-07T15:01:46;5.73;;;3.47;;
801;SDS011;383;48.766;9.270;2023-05-07T15:04:12;7.63;;;2.83;;
801;SDS011;383;48.766;9.270;2023-05-07T15:06:39;3.97;;;2.53;;
801;SDS011;383;48.766;9.270;2023-05-07T15:09:06;8.20;;;3.40;;
801;SDS011;383;48.766;9.270;2023-05-07T15:11:33;3.70;;;2.20;;
801;SDS011;383;48.766;9.270;2023-05-07T15:14:00;6.17;;;2.77;;
801;SDS011;383;48.766;9.270;2023-05-07T15:16:29;3.57;;;2.10;;
801;SDS011;383;48.766;9.270;2023-05-07T15:18:56;5.20;;;2.80;;
801;SDS011;383;48.766;9.270;2023-05-07T15:21:23;3.07;;;2.30;;
801;SDS011;383;48.766;9.270;2023-05-07T15:23:51;6.37;;;2.40;;
801;SDS011;383;48.766;9.270;2023-05-07T15:26:18;5.03;;;2.40;;
801;SDS011;383;48.766;9.270;2023-05-07T15:28:45;3.97;;;2.37;;
801;SDS011;383;48.766;9.270;2023-05-07T15:31:12;9.40;;;3.00;;
801;SDS011;383;48.766;9.270;2023-05-07T15:33:40;4.37;;;2.60;;
801;SDS011;383;48.766;9.270;2023-05-07T15:36:09;4.43;;;3.07;;
801;SDS011;383;48.766;9.270;2023-05-07T15:38:35;6.00;;;3.17;;
801;SDS011;383;48.766;9.270;2023-05-07T15:41:02;3.23;;;2.30;;
801;SDS011;383;48.766;9.270;2023-05-07T15:43:29;3.23;;;2.50;;
801;SDS011;383;48.766;9.270;2023-05-07T15:45:56;7.43;;;3.03;;
801;SDS011;383;48.766;9.270;2023-05-07T15:48:25;3.93;;;3.00;;
801;SDS011;383;48.766;9.270;2023-05-07T15:50:53;5.27;;;1.80;;
801;SDS011;383;48.766;9.270;2023-05-07T15:53:20;4.47;;;2.60;;
801;SDS011;383;48.766;9.270;2023-05-07T15:55:46;3.90;;;2.47;;
801;SDS011;383;48.766;9.270;2023-05-07T15:58:13;2.80;;;2.17;;